Saturday, February 6, 2016, 8:08 PM EST

KDOV, Dover Air Force Base

Location: Dover, DE, United States Lat: 39.133
Local Time: 8:08 PM EST ( 1:08 GMT) Lon: -75.467
Time Zone: US/Eastern Elev: 29 ft

Show me the last for .
Show Decoded

2016-02-06 18:58 METAR KDOV 062358Z AUTO 15002KT 10SM FEW190 02/M02 A3031 RMK AO2 SLP268
                 T00181020 10065 20017 55000 VISNO RWY19 CHINO RWY19 $ =
2016-02-06 17:58 METAR KDOV 062258Z AUTO 20003KT 10SM CLR 03/M03 A3031 RMK AO2 SLP268 T00341032
                 VISNO RWY19 CHINO RWY19 $ =
2016-02-06 16:58 METAR KDOV 062158Z AUTO 17003KT 10SM CLR 06/M03 A3030 =
2016-02-06 15:58 METAR KDOV 062058Z AUTO VRB02KT 10SM CLR 06/M03 A3031 RMK AO2 SLP267 T00631035
                 57022 VISNO RWY19 CHINO RWY19 $ =
2016-02-06 14:58 METAR KDOV 061958Z AUTO 20003KT 10SM CLR 06/M03 A3033 =
2016-02-06 13:58 METAR KDOV 061858Z AUTO 20007KT 10SM CLR 05/M05 A3035 RMK AO2 SLP281 T00541046
                 VISNO RWY19 CHINO RWY19 $ =
2016-02-06 12:58 METAR KDOV 061758Z AUTO 19005KT 10SM CLR 05/M04 A3038 =
2016-02-06 11:58 METAR KDOV 061658Z AUTO 24007KT 10SM CLR 04/M04 A3042 RMK AO2 SLP305 T00431043
                 VISNO RWY19 CHINO RWY19 $ =
2016-02-06 10:58 METAR KDOV 061558Z AUTO 19005KT 10SM CLR 03/M05 A3046 RMK AO2 SLP318 T00321051
                 VISNO RWY19 CHINO RWY19 $ =
2016-02-06 09:58 METAR KDOV 061458Z AUTO 20002KT 10SM CLR 02/M04 A3046 =
2016-02-06 08:58 METAR KDOV 061358Z AUTO 19001KT 10SM CLR 00/M04 A3045 =
2016-02-06 07:58 METAR KDOV 061258Z AUTO 21002KT 10SM CLR M02/M04 A3045 RMK AO2 SLP315 T10211041
                 VISNO RWY19 CHINO RWY19 $ =
2016-02-06 06:58 METAR KDOV 061158Z AUTO 25002KT 10SM CLR M02/M04 A3043 =
2016-02-06 05:58 METAR KDOV 061058Z AUTO 18002KT 10SM CLR M02/M03 A3042 =
2016-02-06 04:58 METAR KDOV 060958Z AUTO 25001KT 10SM CLR M02/M05 A3041 RMK AO2 SLP301 T10171050
                 VISNO RWY19 CHINO RWY19 $ =
2016-02-06 03:58 METAR KDOV 060858Z AUTO 24001KT 10SM CLR M01/M05 A3040 RMK AO2 SLP298 T10131049
                 52006 VISNO RWY19 CHINO RWY19 $ =
2016-02-06 02:58 METAR KDOV 060758Z AUTO 26002KT 10SM CLR M01/M05 A3039 RMK AO2 SLP294 T10061055
                 VISNO RWY19 CHINO RWY19 $ =
2016-02-06 01:58 METAR KDOV 060658Z AUTO 30005KT 10SM CLR M01/M05 A3038 RMK AO2 SLP291 T10061053
                 VISNO RWY19 CHINO RWY19 $ =
2016-02-06 00:58 METAR KDOV 060558Z AUTO 29004KT 10SM CLR 00/M05 A3037 =
2016-02-05 23:58 METAR KDOV 060458Z AUTO 28005KT 10SM CLR 00/M05 A3037 RMK AO2 SLP288 T10001047
                 400571002 VISNO RWY19 CHINO RWY19 $ =
2016-02-05 22:58 METAR KDOV 060358Z AUTO 27005KT 10SM CLR 01/M05 A3036 =
2016-02-05 21:58 METAR KDOV 060258Z AUTO 29007KT 10SM CLR 01/M05 A3035 RMK AO2 SLP281 T00131046
                 52010 VISNO RWY19 CHINO RWY19 $ =
2016-02-05 20:58 METAR KDOV 060158Z AUTO 30007KT 10SM CLR 02/M04 A3035 RMK AO2 SLP281 T00171041
                 VISNO RWY19 CHINO RWY19 $ =

Support USWX by starting your Amazon purchase here.